Time;durP1;ratioP1;P1;durP2;ratioP2;P2;SDS_P1;SDS_P2;PMS_P1;PMS_P2;Temp;Humidity;BMP_temperature;BMP_pressure;BME280_temperature;BME280_humidity;BME280_pressure;Samples;Min_cycle;Max_cycle;Signal;HPM_P1;HPM_P2
2023/07/22 00:01:20;;;;;;;;;;;14.90;99.90;;;;;;5023548;28;19922;-73
2023/07/22 00:03:46;;;;;;;;;;;14.90;99.90;;;;;;5006038;28;19922;-73
2023/07/22 00:06:13;;;;;;;;;;;14.90;99.90;;;;;;5003570;28;19985;-72
2023/07/22 00:08:39;;;;;;;;;;;14.90;99.90;;;;;;5003194;28;19953;-73
2023/07/22 00:11:06;;;;;;;;;;;14.90;99.90;;;;;;5003852;28;19921;-73
2023/07/22 00:13:33;;;;;;;;;;;14.90;99.90;;;;;;5003874;28;19928;-74
2023/07/22 00:16:03;;;;;;;;;;;14.90;99.90;;;;;;5003820;28;19928;-73
2023/07/22 00:18:30;;;;;;;;;;;14.80;99.90;;;;;;5003065;28;19928;-73
2023/07/22 00:20:57;;;;;;;;;;;14.80;99.90;;;;;;5003781;28;19922;-73
2023/07/22 00:23:24;;;;;;;;;;;14.80;99.90;;;;;;5003711;28;19921;-73
2023/07/22 00:25:51;;;;;;;;;;;14.80;99.90;;;;;;5009496;28;19921;-73
2023/07/22 00:28:18;;;;;;;;;;;14.80;99.90;;;;;;5026253;28;19997;-73
2023/07/22 00:30:45;;;;;;;;;;;14.80;99.90;;;;;;5026522;28;19944;-73
2023/07/22 00:33:13;;;;;;;;;;;14.70;99.90;;;;;;5026730;28;19922;-73
2023/07/22 00:35:40;;;;;;;;;;;14.70;99.90;;;;;;5026347;28;20209;-73
2023/07/22 00:38:07;;;;;;;;;;;14.70;99.90;;;;;;5026023;28;19922;-73
2023/07/22 00:40:33;;;;;;;;;;;14.70;99.90;;;;;;5026284;28;19984;-73
2023/07/22 00:43:00;;;;;;;;;;;14.70;99.90;;;;;;5026605;28;19980;-73
2023/07/22 00:45:26;;;;;;;;;;;14.60;99.90;;;;;;5026474;28;19960;-72
2023/07/22 00:47:53;;;;;;;;;;;14.50;99.90;;;;;;5026053;28;20157;-73
2023/07/22 00:50:22;;;;;;;;;;;14.50;99.90;;;;;;5026033;28;19964;-73
2023/07/22 00:52:49;;;;;;;;;;;14.50;99.90;;;;;;5026243;28;19921;-73
2023/07/22 00:55:15;;;;;;;;;;;14.50;99.90;;;;;;5025911;28;19963;-73
2023/07/22 00:57:42;;;;;;;;;;;14.50;99.90;;;;;;5026221;28;19930;-73
2023/07/22 01:00:11;;;;;;;;;;;14.40;99.90;;;;;;5025819;28;19921;-73
2023/07/22 01:02:39;;;;;;;;;;;14.40;99.90;;;;;;5025825;28;19921;-73
2023/07/22 01:05:06;;;;;;;;;;;14.30;99.90;;;;;;5045521;28;19984;-73
2023/07/22 01:07:35;;;;;;;;;;;14.30;99.90;;;;;;5045702;28;19956;-73
2023/07/22 01:10:03;;;;;;;;;;;14.20;99.90;;;;;;5044937;28;19921;-73
2023/07/22 01:12:29;;;;;;;;;;;14.20;99.90;;;;;;5045602;28;19947;-73
2023/07/22 01:14:56;;;;;;;;;;;14.30;99.90;;;;;;5026227;28;19964;-73
2023/07/22 01:17:23;;;;;;;;;;;14.20;99.90;;;;;;5023404;28;20201;-73
2023/07/22 01:19:49;;;;;;;;;;;14.10;99.90;;;;;;5012503;28;19952;-73
2023/07/22 01:22:17;;;;;;;;;;;14.20;99.90;;;;;;5006159;28;19928;-73
2023/07/22 01:24:45;;;;;;;;;;;14.10;99.90;;;;;;5005910;28;19985;-73
2023/07/22 01:27:20;;;;;;;;;;;14.10;99.90;;;;;;5003027;28;19989;-73
2023/07/22 01:29:47;;;;;;;;;;;14.20;99.90;;;;;;5012350;28;19964;-73
2023/07/22 01:32:14;;;;;;;;;;;14.20;99.90;;;;;;5045257;28;19967;-73
2023/07/22 01:34:41;;;;;;;;;;;14.20;99.90;;;;;;5045073;28;19921;-72
2023/07/22 01:37:09;;;;;;;;;;;14.20;99.90;;;;;;5045087;28;19921;-73
2023/07/22 01:39:36;;;;;;;;;;;14.20;99.90;;;;;;5044634;28;20094;-73
2023/07/22 01:42:04;;;;;;;;;;;14.10;99.90;;;;;;5045264;28;20148;-73
2023/07/22 01:44:31;;;;;;;;;;;14.10;99.90;;;;;;5045201;28;19928;-73
2023/07/22 01:46:58;;;;;;;;;;;14.10;99.90;;;;;;5043620;28;20201;-73
2023/07/22 01:49:25;;;;;;;;;;;14.10;99.90;;;;;;5024716;28;19925;-73
2023/07/22 01:51:52;;;;;;;;;;;14.10;99.90;;;;;;5025336;28;19921;-73
2023/07/22 01:54:19;;;;;;;;;;;14.10;99.90;;;;;;5025265;28;20094;-73
2023/07/22 01:56:45;;;;;;;;;;;14.10;99.90;;;;;;5025151;28;19964;-73
2023/07/22 01:59:13;;;;;;;;;;;14.10;99.90;;;;;;5024186;28;20205;-73
2023/07/22 02:01:40;;;;;;;;;;;14.10;99.90;;;;;;5024874;28;20202;-73
2023/07/22 02:04:07;;;;;;;;;;;14.10;99.90;;;;;;5024897;28;19980;-73
2023/07/22 02:06:34;;;;;;;;;;;14.10;99.90;;;;;;5024928;28;19922;-73
2023/07/22 02:09:07;;;;;;;;;;;14.10;99.90;;;;;;5011479;28;19929;-72
2023/07/22 02:11:34;;;;;;;;;;;14.10;99.90;;;;;;5011397;28;19928;-72
2023/07/22 02:14:01;;;;;;;;;;;14.00;99.90;;;;;;5024914;28;19960;-72
2023/07/22 02:16:28;;;;;;;;;;;14.00;99.90;;;;;;5024103;28;20281;-72
2023/07/22 02:18:55;;;;;;;;;;;14.00;99.90;;;;;;5023709;28;19921;-71
2023/07/22 02:21:22;;;;;;;;;;;14.00;99.90;;;;;;5024614;28;20173;-72
2023/07/22 02:23:48;;;;;;;;;;;14.00;99.90;;;;;;5024143;28;19989;-72
2023/07/22 02:26:16;;;;;;;;;;;14.00;99.90;;;;;;5022085;28;19952;-72
2023/07/22 02:28:43;;;;;;;;;;;13.90;99.90;;;;;;5027051;28;19988;-71
2023/07/22 02:31:10;;;;;;;;;;;13.90;99.90;;;;;;5011390;28;19922;-72
2023/07/22 02:33:38;;;;;;;;;;;13.90;99.90;;;;;;5004433;28;19985;-72
2023/07/22 02:36:05;;;;;;;;;;;13.90;99.90;;;;;;5004498;28;19922;-71
2023/07/22 02:38:32;;;;;;;;;;;13.90;99.90;;;;;;5004057;28;19964;-72
2023/07/22 02:41:02;;;;;;;;;;;13.90;99.90;;;;;;5003575;28;19989;-72
2023/07/22 02:43:28;;;;;;;;;;;13.90;99.90;;;;;;5004636;28;20022;-72
2023/07/22 02:45:55;;;;;;;;;;;13.90;99.90;;;;;;5004461;28;20189;-72
2023/07/22 02:48:22;;;;;;;;;;;13.90;99.90;;;;;;5003351;28;19922;-72
2023/07/22 02:50:50;;;;;;;;;;;13.90;99.90;;;;;;5004100;28;19957;-72
2023/07/22 02:53:16;;;;;;;;;;;13.90;99.90;;;;;;5004370;28;20236;-72
2023/07/22 02:55:43;;;;;;;;;;;13.90;99.90;;;;;;5004457;28;19985;-72
2023/07/22 02:58:10;;;;;;;;;;;13.90;99.90;;;;;;5003960;28;19928;-71
2023/07/22 03:00:36;;;;;;;;;;;13.80;99.90;;;;;;5042573;28;19984;-72
2023/07/22 03:03:04;;;;;;;;;;;13.90;99.90;;;;;;5043488;28;19964;-72
2023/07/22 03:05:32;;;;;;;;;;;13.90;99.90;;;;;;5043720;28;19927;-72
2023/07/22 03:08:00;;;;;;;;;;;13.80;99.90;;;;;;5043180;28;19935;-72
2023/07/22 03:10:28;;;;;;;;;;;13.80;99.90;;;;;;5043576;28;19987;-72
2023/07/22 03:12:56;;;;;;;;;;;13.80;99.90;;;;;;5043471;28;20180;-72
2023/07/22 03:15:22;;;;;;;;;;;13.80;99.90;;;;;;5035166;28;19922;-72
2023/07/22 03:17:49;;;;;;;;;;;13.80;99.90;;;;;;5023540;28;19988;-72
2023/07/22 03:20:18;;;;;;;;;;;13.80;99.90;;;;;;5023251;28;19964;-72
2023/07/22 03:22:45;;;;;;;;;;;13.70;99.90;;;;;;5023907;28;19921;-71
2023/07/22 03:25:14;;;;;;;;;;;13.70;99.90;;;;;;5023413;28;19984;-72
2023/07/22 03:27:42;;;;;;;;;;;13.70;99.90;;;;;;5021285;28;19922;-72
2023/07/22 03:30:10;;;;;;;;;;;13.60;99.90;;;;;;5023219;28;19921;-71
2023/07/22 03:32:37;;;;;;;;;;;13.60;99.90;;;;;;5040035;28;19920;-72
2023/07/22 03:35:04;;;;;;;;;;;13.60;99.90;;;;;;5043332;28;19927;-72
2023/07/22 03:37:31;;;;;;;;;;;13.60;99.90;;;;;;5043480;28;19928;-72
2023/07/22 03:40:04;;;;;;;;;;;13.50;99.90;;;;;;5041753;28;19987;-72
2023/07/22 03:42:31;;;;;;;;;;;13.50;99.90;;;;;;5043499;28;19964;-72
2023/07/22 03:44:58;;;;;;;;;;;13.50;99.90;;;;;;5043258;28;20143;-72
2023/07/22 03:47:25;;;;;;;;;;;13.50;99.90;;;;;;5043271;28;19988;-70
2023/07/22 03:49:51;;;;;;;;;;;13.50;99.90;;;;;;5042907;28;19975;-72
2023/07/22 03:52:18;;;;;;;;;;;13.50;99.90;;;;;;5042802;28;19992;-72
2023/07/22 03:54:44;;;;;;;;;;;13.50;99.90;;;;;;5043065;28;19963;-72
2023/07/22 03:57:11;;;;;;;;;;;13.50;99.90;;;;;;5042846;28;19921;-72
2023/07/22 03:59:40;;;;;;;;;;;13.50;99.90;;;;;;5042411;28;20208;-72
2023/07/22 04:02:06;;;;;;;;;;;13.50;99.90;;;;;;5046858;28;19921;-72
2023/07/22 04:04:33;;;;;;;;;;;13.50;99.90;;;;;;5027147;28;19922;-72
2023/07/22 04:06:59;;;;;;;;;;;13.50;99.90;;;;;;5007298;28;19985;-72
2023/07/22 04:09:27;;;;;;;;;;;13.50;99.90;;;;;;5007807;28;19985;-72
2023/07/22 04:11:54;;;;;;;;;;;13.50;99.90;;;;;;5026767;28;19928;-72
2023/07/22 04:14:21;;;;;;;;;;;13.50;99.90;;;;;;5026679;28;20237;-72
2023/07/22 04:16:49;;;;;;;;;;;13.40;99.90;;;;;;5026724;28;19985;-72
2023/07/22 04:19:16;;;;;;;;;;;13.40;99.90;;;;;;5025985;28;20117;-72
2023/07/22 04:21:43;;;;;;;;;;;13.40;99.90;;;;;;5034582;28;19928;-72
2023/07/22 04:24:10;;;;;;;;;;;13.40;99.90;;;;;;5026884;28;19985;-72
2023/07/22 04:26:37;;;;;;;;;;;13.40;99.90;;;;;;5023926;28;19937;-72
2023/07/22 04:29:03;;;;;;;;;;;13.40;99.90;;;;;;5025810;28;19921;-72
2023/07/22 04:31:30;;;;;;;;;;;13.40;99.90;;;;;;5026579;28;19921;-72
2023/07/22 04:33:59;;;;;;;;;;;13.40;99.90;;;;;;5026464;28;20172;-72
2023/07/22 04:36:26;;;;;;;;;;;13.50;99.90;;;;;;5026315;28;19921;-72
2023/07/22 04:38:52;;;;;;;;;;;13.50;99.90;;;;;;5025733;28;19964;-71
2023/07/22 04:41:19;;;;;;;;;;;13.50;99.90;;;;;;5025778;28;19960;-72
2023/07/22 04:43:46;;;;;;;;;;;13.50;99.90;;;;;;5026227;28;19992;-72
2023/07/22 04:46:12;;;;;;;;;;;13.50;99.90;;;;;;5025902;28;20264;-71
2023/07/22 04:48:39;;;;;;;;;;;13.50;99.90;;;;;;5025385;28;19949;-72
2023/07/22 04:51:08;;;;;;;;;;;13.60;99.90;;;;;;5026390;28;19996;-72
2023/07/22 04:53:34;;;;;;;;;;;13.60;99.90;;;;;;5025944;28;19921;-72
2023/07/22 04:56:02;;;;;;;;;;;13.60;99.90;;;;;;5025847;28;19960;-71
2023/07/22 04:58:28;;;;;;;;;;;13.60;99.90;;;;;;5024902;28;19929;-72
2023/07/22 05:00:55;;;;;;;;;;;13.50;99.90;;;;;;5026062;28;19989;-72
2023/07/22 05:03:25;;;;;;;;;;;13.60;99.90;;;;;;5026491;28;19922;-72
2023/07/22 05:05:51;;;;;;;;;;;13.60;99.90;;;;;;5006086;28;20166;-72
2023/07/22 05:08:19;;;;;;;;;;;13.60;99.90;;;;;;5005871;28;19941;-72
2023/07/22 05:10:47;;;;;;;;;;;13.60;99.90;;;;;;5006180;28;19922;-72
2023/07/22 05:13:13;;;;;;;;;;;13.70;99.90;;;;;;5005616;28;19928;-72
2023/07/22 05:15:40;;;;;;;;;;;13.80;99.90;;;;;;5006137;28;19960;-72
2023/07/22 05:18:07;;;;;;;;;;;13.80;99.90;;;;;;5005424;28;19961;-71
2023/07/22 05:20:33;;;;;;;;;;;13.80;99.90;;;;;;5006246;28;19985;-71
2023/07/22 05:23:00;;;;;;;;;;;13.90;99.90;;;;;;5006053;28;19990;-71
2023/07/22 05:25:28;;;;;;;;;;;14.00;99.90;;;;;;5019763;28;19921;-71
2023/07/22 05:27:54;;;;;;;;;;;14.00;99.90;;;;;;5021555;28;20205;-71
2023/07/22 05:30:21;;;;;;;;;;;14.10;99.90;;;;;;5025390;28;19927;-71
2023/07/22 05:32:48;;;;;;;;;;;14.10;99.90;;;;;;5025214;28;20209;-71
2023/07/22 05:35:14;;;;;;;;;;;14.20;99.90;;;;;;5025124;28;19957;-71
2023/07/22 05:37:41;;;;;;;;;;;14.20;99.90;;;;;;5025311;28;19980;-72
2023/07/22 05:40:09;;;;;;;;;;;14.20;99.90;;;;;;5022924;28;19977;-70
2023/07/22 05:42:37;;;;;;;;;;;14.20;99.90;;;;;;5024885;28;19922;-71
2023/07/22 05:45:04;;;;;;;;;;;14.20;99.90;;;;;;5025047;28;19988;-71
2023/07/22 05:47:31;;;;;;;;;;;14.30;99.90;;;;;;5024982;28;19921;-71
2023/07/22 05:49:58;;;;;;;;;;;14.30;99.90;;;;;;5024466;28;19992;-72
2023/07/22 05:52:28;;;;;;;;;;;14.50;99.90;;;;;;5003435;28;19992;-70
2023/07/22 05:54:55;;;;;;;;;;;14.40;99.90;;;;;;5004888;28;20398;-72
2023/07/22 05:57:22;;;;;;;;;;;14.50;99.90;;;;;;5005174;28;19985;-72
2023/07/22 05:59:50;;;;;;;;;;;14.50;99.90;;;;;;5004692;28;19980;-70
2023/07/22 06:02:18;;;;;;;;;;;14.60;99.90;;;;;;5040606;28;19921;-71
2023/07/22 06:04:44;;;;;;;;;;;14.70;99.90;;;;;;5037056;28;19922;-70
2023/07/22 06:07:11;;;;;;;;;;;14.80;99.90;;;;;;5016807;28;20097;-71
2023/07/22 06:09:38;;;;;;;;;;;14.90;99.90;;;;;;5023655;28;19940;-70
2023/07/22 06:12:05;;;;;;;;;;;15.00;99.90;;;;;;5015672;28;19985;-72
2023/07/22 06:14:31;;;;;;;;;;;15.10;99.90;;;;;;5004906;28;20284;-72
2023/07/22 06:16:59;;;;;;;;;;;15.30;99.90;;;;;;5039965;28;20231;-71
2023/07/22 06:22:23;;;;;;;;;;;15.40;99.90;;;;;;5044607;28;19923;-71
2023/07/22 06:24:50;;;;;;;;;;;15.50;99.90;;;;;;5043698;28;19967;-71
2023/07/22 06:27:24;;;;;;;;;;;15.60;99.90;;;;;;5041683;28;19989;-71
2023/07/22 06:29:51;;;;;;;;;;;15.70;99.90;;;;;;5043940;28;19928;-71
2023/07/22 06:32:19;;;;;;;;;;;15.80;99.90;;;;;;5044043;28;19928;-72
2023/07/22 06:34:45;;;;;;;;;;;15.90;99.90;;;;;;5044369;28;19921;-72
2023/07/22 06:37:12;;;;;;;;;;;16.00;99.90;;;;;;5044287;28;19928;-72
2023/07/22 06:39:39;;;;;;;;;;;16.10;99.90;;;;;;5030372;28;19922;-72
2023/07/22 06:42:06;;;;;;;;;;;16.10;99.90;;;;;;5024326;28;19993;-71
2023/07/22 06:44:32;;;;;;;;;;;16.20;99.90;;;;;;5024590;28;19928;-72
2023/07/22 06:46:59;;;;;;;;;;;16.30;99.90;;;;;;5024272;28;20260;-72
2023/07/22 06:49:27;;;;;;;;;;;16.30;99.90;;;;;;5004260;28;19957;-72
2023/07/22 06:51:53;;;;;;;;;;;16.40;99.90;;;;;;5004737;28;19928;-72
2023/07/22 06:54:20;;;;;;;;;;;16.50;99.90;;;;;;5004600;28;20237;-72
2023/07/22 06:56:47;;;;;;;;;;;16.60;99.90;;;;;;5004664;28;19964;-72
2023/07/22 06:59:13;;;;;;;;;;;16.60;99.90;;;;;;5003990;28;19985;-72
2023/07/22 07:01:40;;;;;;;;;;;16.70;99.90;;;;;;5004564;28;19957;-72
2023/07/22 07:04:16;;;;;;;;;;;16.80;99.90;;;;;;5002144;28;19984;-72
2023/07/22 07:06:45;;;;;;;;;;;16.80;99.90;;;;;;5004681;28;19984;-72
2023/07/22 07:09:12;;;;;;;;;;;16.90;99.90;;;;;;5003648;28;20298;-72
2023/07/22 07:11:38;;;;;;;;;;;17.00;99.90;;;;;;5004296;28;19922;-72
2023/07/22 07:14:05;;;;;;;;;;;17.10;99.90;;;;;;5004495;28;19929;-71
2023/07/22 07:16:33;;;;;;;;;;;17.20;99.90;;;;;;5004333;28;20017;-70
2023/07/22 07:19:00;;;;;;;;;;;17.30;99.90;;;;;;5009860;28;20206;-71
2023/07/22 07:24:03;;;;;;;;;;;17.40;99.90;;;;;;5709134;22;19921;-68
2023/07/22 07:26:30;;;;;;;;;;;17.50;99.90;;;;;;5017233;28;19956;-68
2023/07/22 07:28:57;;;;;;;;;;;17.50;99.90;;;;;;5022676;28;20238;-68
2023/07/22 07:31:23;;;;;;;;;;;17.60;99.90;;;;;;5023192;28;19986;-68
2023/07/22 07:33:50;;;;;;;;;;;17.70;99.90;;;;;;5018154;28;19980;-67
2023/07/22 07:36:16;;;;;;;;;;;17.80;99.90;;;;;;5002017;28;20259;-67
2023/07/22 07:38:43;;;;;;;;;;;17.80;99.90;;;;;;5001530;28;19976;-66
2023/07/22 07:41:14;;;;;;;;;;;17.90;99.90;;;;;;5022040;28;19921;-67
2023/07/22 07:43:41;;;;;;;;;;;17.90;99.90;;;;;;5027446;28;19956;-67
2023/07/22 07:46:14;;;;;;;;;;;18.00;99.90;;;;;;5012120;28;20209;-67
2023/07/22 07:48:43;;;;;;;;;;;18.10;99.90;;;;;;5006413;28;19928;-67
2023/07/22 07:51:12;;;;;;;;;;;18.20;99.90;;;;;;5021576;28;19953;-67
2023/07/22 07:53:38;;;;;;;;;;;18.20;99.90;;;;;;5009329;28;19922;-68
2023/07/22 07:56:05;;;;;;;;;;;18.20;99.90;;;;;;4994399;28;19988;-67
2023/07/22 07:58:33;;;;;;;;;;;18.20;99.90;;;;;;5007391;28;19953;-68
2023/07/22 08:01:00;;;;;;;;;;;18.20;99.90;;;;;;5007411;28;20176;-67
2023/07/22 08:03:26;;;;;;;;;;;18.20;99.90;;;;;;5006910;28;19993;-68
2023/07/22 08:05:53;;;;;;;;;;;18.30;99.90;;;;;;5007221;28;19953;-67
2023/07/22 08:08:20;;;;;;;;;;;18.30;99.90;;;;;;5007137;28;19988;-68
2023/07/22 08:10:48;;;;;;;;;;;18.30;99.90;;;;;;5007382;28;19993;-68
2023/07/22 08:13:14;;;;;;;;;;;18.40;99.90;;;;;;5006903;28;19922;-68
2023/07/22 08:15:42;;;;;;;;;;;18.50;99.90;;;;;;5007235;28;19921;-68
2023/07/22 08:18:09;;;;;;;;;;;18.50;99.90;;;;;;5006939;28;19928;-67
2023/07/22 08:20:36;;;;;;;;;;;18.60;99.90;;;;;;5006851;28;19964;-67
2023/07/22 08:23:02;;;;;;;;;;;18.70;99.90;;;;;;5006780;28;19925;-67
2023/07/22 08:25:29;;;;;;;;;;;18.70;99.90;;;;;;5006649;28;19922;-68
2023/07/22 08:27:55;;;;;;;;;;;18.90;99.90;;;;;;5000382;28;20201;-68
2023/07/22 08:30:22;;;;;;;;;;;19.10;99.90;;;;;;4987389;28;19985;-67
2023/07/22 08:32:50;;;;;;;;;;;19.20;99.90;;;;;;4996081;28;19945;-67
2023/07/22 08:35:17;;;;;;;;;;;19.30;99.90;;;;;;5002909;28;19993;-68
2023/07/22 08:37:44;;;;;;;;;;;19.40;99.90;;;;;;4987207;28;19922;-67
2023/07/22 08:40:11;;;;;;;;;;;19.40;99.90;;;;;;5002319;28;19993;-67
2023/07/22 08:42:38;;;;;;;;;;;19.40;99.90;;;;;;5006521;28;20121;-68
2023/07/22 08:45:06;;;;;;;;;;;19.50;99.90;;;;;;5006154;28;19922;-68
2023/07/22 08:47:33;;;;;;;;;;;19.50;99.90;;;;;;5005244;28;19922;-67
2023/07/22 08:50:02;;;;;;;;;;;19.60;99.90;;;;;;5006010;28;19929;-68
2023/07/22 08:52:29;;;;;;;;;;;19.60;99.90;;;;;;5001397;28;19922;-68
2023/07/22 08:54:56;;;;;;;;;;;19.60;99.90;;;;;;5006591;28;20091;-68
2023/07/22 08:57:23;;;;;;;;;;;19.60;99.90;;;;;;5006615;28;19980;-69
2023/07/22 08:59:49;;;;;;;;;;;19.70;99.90;;;;;;5006168;28;19943;-68
2023/07/22 09:02:16;;;;;;;;;;;19.60;99.90;;;;;;5006001;28;19986;-69
2023/07/22 09:04:43;;;;;;;;;;;19.70;99.90;;;;;;5006288;28;19980;-69
2023/07/22 09:07:13;;;;;;;;;;;19.80;99.90;;;;;;5005990;28;19921;-68
2023/07/22 09:09:41;;;;;;;;;;;19.80;99.90;;;;;;5005938;28;19957;-68
2023/07/22 09:12:08;;;;;;;;;;;19.80;99.90;;;;;;4998759;28;19929;-68
2023/07/22 09:14:35;;;;;;;;;;;19.80;99.90;;;;;;4995087;28;19922;-69
2023/07/22 09:17:01;;;;;;;;;;;19.80;99.90;;;;;;4999208;28;19930;-68
2023/07/22 09:19:30;;;;;;;;;;;19.80;99.90;;;;;;5005818;28;19981;-69
2023/07/22 09:21:58;;;;;;;;;;;19.80;99.90;;;;;;4988890;28;20284;-69
2023/07/22 09:24:27;;;;;;;;;;;19.80;99.90;;;;;;4986299;28;19929;-69
2023/07/22 09:26:54;;;;;;;;;;;19.90;99.90;;;;;;4986366;28;19922;-68
2023/07/22 09:29:33;;;;;;;;;;;19.90;99.90;;;;;;4993812;28;19981;-68
2023/07/22 09:31:59;;;;;;;;;;;19.90;99.90;;;;;;5003941;28;19964;-68
2023/07/22 09:34:26;;;;;;;;;;;20.00;99.90;;;;;;4992075;28;19922;-68
2023/07/22 09:36:53;;;;;;;;;;;20.00;99.90;;;;;;4997292;28;19965;-68
2023/07/22 09:39:20;;;;;;;;;;;20.00;99.90;;;;;;5004320;28;19981;-69
2023/07/22 09:41:48;;;;;;;;;;;20.20;99.90;;;;;;5005660;28;19980;-68
2023/07/22 09:44:14;;;;;;;;;;;20.30;99.90;;;;;;5004555;28;19989;-68
2023/07/22 09:46:41;;;;;;;;;;;20.50;99.90;;;;;;5007422;28;19981;-69
2023/07/22 09:49:09;;;;;;;;;;;20.50;99.90;;;;;;5005318;28;20098;-68
2023/07/22 09:51:36;;;;;;;;;;;20.60;99.90;;;;;;5005393;28;19922;-68
2023/07/22 09:54:03;;;;;;;;;;;20.50;99.90;;;;;;5004790;28;19922;-69
2023/07/22 09:56:30;;;;;;;;;;;20.50;99.90;;;;;;5004870;28;19925;-68
2023/07/22 09:59:05;;;;;;;;;;;20.50;99.90;;;;;;5003968;28;19928;-69
2023/07/22 10:01:33;;;;;;;;;;;20.50;99.90;;;;;;5005161;28;20156;-69
2023/07/22 10:04:00;;;;;;;;;;;20.60;99.90;;;;;;5005025;28;20112;-69
2023/07/22 10:06:29;;;;;;;;;;;20.70;99.90;;;;;;4982957;28;21848;-69
2023/07/22 10:08:56;;;;;;;;;;;20.80;99.90;;;;;;5001332;28;19990;-68
2023/07/22 10:11:23;;;;;;;;;;;20.90;99.90;;;;;;5005040;28;19957;-68
2023/07/22 10:13:50;;;;;;;;;;;20.90;99.90;;;;;;5004739;28;19922;-69
2023/07/22 10:16:18;;;;;;;;;;;21.00;99.90;;;;;;5004687;28;20214;-68
2023/07/22 10:18:45;;;;;;;;;;;21.00;99.90;;;;;;5004319;28;19964;-69
2023/07/22 10:21:12;;;;;;;;;;;21.00;99.90;;;;;;5004761;28;19996;-69
2023/07/22 10:23:39;;;;;;;;;;;21.00;99.90;;;;;;5003864;28;19985;-69
2023/07/22 10:26:07;;;;;;;;;;;21.00;99.90;;;;;;4994069;28;19960;-69
2023/07/22 10:28:34;;;;;;;;;;;21.00;99.90;;;;;;5003122;28;19921;-69
2023/07/22 10:31:00;;;;;;;;;;;21.00;99.90;;;;;;5003648;28;19922;-69
2023/07/22 10:33:29;;;;;;;;;;;21.10;99.90;;;;;;4997823;28;19989;-68
2023/07/22 10:36:04;;;;;;;;;;;21.10;99.90;;;;;;5004209;28;19985;-68
2023/07/22 10:38:32;;;;;;;;;;;21.10;99.90;;;;;;5002292;28;19930;-69
2023/07/22 10:40:59;;;;;;;;;;;21.00;99.90;;;;;;5004158;28;19945;-69
2023/07/22 10:43:26;;;;;;;;;;;20.90;99.90;;;;;;4996304;28;19957;-69
2023/07/22 10:45:54;;;;;;;;;;;20.80;99.90;;;;;;4987451;28;19922;-69
2023/07/22 10:48:21;;;;;;;;;;;20.80;99.90;;;;;;5003343;28;19981;-67
2023/07/22 10:50:50;;;;;;;;;;;20.70;99.90;;;;;;5002146;28;19922;-69
2023/07/22 10:53:21;;;;;;;;;;;20.70;99.90;;;;;;5003633;28;19921;-68
2023/07/22 10:56:03;;;;;;;;;;;20.70;99.90;;;;;;5003842;28;19994;-69
2023/07/22 10:58:31;;;;;;;;;;;20.70;99.90;;;;;;4983831;28;19985;-68
2023/07/22 11:00:57;;;;;;;;;;;20.80;99.90;;;;;;4984476;28;20005;-68
2023/07/22 11:03:24;;;;;;;;;;;21.00;99.90;;;;;;4984199;28;20188;-68
2023/07/22 11:05:55;;;;;;;;;;;21.10;99.90;;;;;;4998375;28;20000;-68
2023/07/22 11:08:35;;;;;;;;;;;21.30;99.90;;;;;;5000614;28;19922;-69
2023/07/22 11:11:02;;;;;;;;;;;21.50;99.90;;;;;;4983964;28;20205;-69
2023/07/22 11:13:29;;;;;;;;;;;21.70;99.90;;;;;;4999679;28;19996;-68
2023/07/22 11:15:58;;;;;;;;;;;21.80;99.90;;;;;;5003886;28;19922;-69
2023/07/22 11:18:36;;;;;;;;;;;22.00;99.90;;;;;;5003674;28;19937;-69
2023/07/22 11:21:07;;;;;;;;;;;22.00;99.90;;;;;;5000668;28;19926;-68
2023/07/22 11:23:34;;;;;;;;;;;22.20;99.90;;;;;;4983964;28;19922;-68
2023/07/22 11:26:01;;;;;;;;;;;22.30;99.90;;;;;;4983718;28;19964;-70
2023/07/22 11:28:28;;;;;;;;;;;22.50;99.90;;;;;;4993924;28;19922;-69
2023/07/22 11:30:55;;;;;;;;;;;22.80;99.90;;;;;;5003745;28;20146;-68
2023/07/22 11:33:22;;;;;;;;;;;23.00;99.90;;;;;;5003205;28;19988;-69
2023/07/22 11:35:49;;;;;;;;;;;23.30;99.90;;;;;;5002501;28;19988;-69
2023/07/22 11:38:17;;;;;;;;;;;23.50;99.90;;;;;;5002753;28;19961;-67
2023/07/22 11:40:43;;;;;;;;;;;23.50;99.90;;;;;;5001055;28;19993;-68
2023/07/22 11:43:10;;;;;;;;;;;23.50;99.90;;;;;;4999420;28;19921;-68
2023/07/22 11:45:38;;;;;;;;;;;23.40;99.90;;;;;;5003148;28;19990;-69
2023/07/22 11:48:09;;;;;;;;;;;23.40;99.90;;;;;;5001501;28;19922;-68
2023/07/22 11:50:36;;;;;;;;;;;23.40;99.90;;;;;;5002707;28;19988;-68
2023/07/22 11:53:03;;;;;;;;;;;23.40;99.90;;;;;;5003278;28;19928;-68
2023/07/22 11:55:30;;;;;;;;;;;23.50;99.90;;;;;;5003375;28;19922;-69
2023/07/22 11:57:57;;;;;;;;;;;23.70;99.90;;;;;;5002820;28;19928;-68
2023/07/22 12:00:24;;;;;;;;;;;23.80;99.90;;;;;;5003432;28;19960;-69
2023/07/22 12:02:56;;;;;;;;;;;24.00;99.90;;;;;;5003177;28;19952;-69
2023/07/22 12:05:23;;;;;;;;;;;24.10;99.90;;;;;;4995402;28;20024;-69
2023/07/22 12:07:49;;;;;;;;;;;24.10;99.90;;;;;;5002476;28;19953;-68
2023/07/22 12:10:16;;;;;;;;;;;24.00;99.90;;;;;;5002791;28;20237;-66
2023/07/22 12:12:46;;;;;;;;;;;24.00;99.90;;;;;;5003340;28;20150;-66
2023/07/22 12:15:15;;;;;;;;;;;23.80;99.90;;;;;;5003211;28;19930;-66
2023/07/22 12:17:45;;;;;;;;;;;23.70;99.90;;;;;;5003299;28;19921;-66
2023/07/22 12:20:12;;;;;;;;;;;23.60;99.90;;;;;;5002814;28;19922;-66
2023/07/22 12:22:39;;;;;;;;;;;23.50;99.90;;;;;;5006255;28;19929;-67
2023/07/22 12:25:06;;;;;;;;;;;23.40;99.90;;;;;;4999306;28;19957;-66
2023/07/22 12:27:33;;;;;;;;;;;23.30;99.90;;;;;;4997498;28;19944;-65
2023/07/22 12:30:02;;;;;;;;;;;23.30;99.90;;;;;;4992953;28;19957;-66
2023/07/22 12:32:29;;;;;;;;;;;23.30;99.90;;;;;;4990919;28;19945;-67
2023/07/22 12:34:56;;;;;;;;;;;23.40;99.90;;;;;;5006132;28;19992;-66
2023/07/22 12:37:22;;;;;;;;;;;23.40;99.90;;;;;;5006526;28;19926;-66
2023/07/22 12:39:49;;;;;;;;;;;23.30;99.90;;;;;;5005901;28;20441;-67
2023/07/22 12:42:15;;;;;;;;;;;23.30;99.90;;;;;;5006327;28;19985;-66
2023/07/22 12:44:42;;;;;;;;;;;23.30;99.90;;;;;;5000584;28;20017;-66
2023/07/22 12:47:10;;;;;;;;;;;23.40;99.90;;;;;;5003529;28;20185;-66
2023/07/22 12:49:37;;;;;;;;;;;23.40;99.90;;;;;;4986692;28;19986;-67
2023/07/22 12:52:07;;;;;;;;;;;23.50;99.90;;;;;;4986486;28;19972;-66
2023/07/22 12:54:34;;;;;;;;;;;23.60;99.90;;;;;;4986633;28;19937;-67
2023/07/22 12:57:00;;;;;;;;;;;23.60;99.90;;;;;;4990670;28;19928;-66
2023/07/22 12:59:27;;;;;;;;;;;23.70;99.90;;;;;;4995487;28;20137;-66
2023/07/22 13:01:54;;;;;;;;;;;23.80;99.90;;;;;;4987502;28;19991;-66
2023/07/22 13:04:22;;;;;;;;;;;23.90;99.90;;;;;;4986486;28;19985;-67
2023/07/22 13:06:48;;;;;;;;;;;24.00;99.90;;;;;;4986708;28;19940;-66
2023/07/22 13:09:15;;;;;;;;;;;23.90;99.90;;;;;;5004161;28;19957;-66
2023/07/22 13:11:41;;;;;;;;;;;23.90;99.90;;;;;;4986911;28;20478;-66
2023/07/22 13:14:08;;;;;;;;;;;23.90;99.90;;;;;;5000331;28;19996;-66
2023/07/22 13:16:35;;;;;;;;;;;24.00;99.90;;;;;;4993882;28;19922;-66
2023/07/22 13:19:03;;;;;;;;;;;24.10;99.90;;;;;;5002033;28;19992;-67
2023/07/22 13:21:31;;;;;;;;;;;24.40;99.90;;;;;;4995089;28;19985;-66
2023/07/22 13:23:57;;;;;;;;;;;24.80;99.90;;;;;;5005553;28;19960;-66
2023/07/22 13:26:24;;;;;;;;;;;24.90;99.90;;;;;;4989752;28;20008;-66
2023/07/22 13:28:52;;;;;;;;;;;24.90;99.90;;;;;;5004726;28;20260;-66
2023/07/22 13:31:19;;;;;;;;;;;24.80;99.90;;;;;;5005490;28;19988;-67
2023/07/22 13:33:46;;;;;;;;;;;24.60;99.90;;;;;;4993777;28;19997;-67
2023/07/22 13:36:13;;;;;;;;;;;24.50;99.90;;;;;;4986995;28;19953;-67
2023/07/22 13:38:41;;;;;;;;;;;24.50;99.90;;;;;;4985408;28;19976;-67
2023/07/22 13:41:07;;;;;;;;;;;24.50;99.90;;;;;;5003367;28;19928;-67
2023/07/22 13:43:37;;;;;;;;;;;24.70;99.90;;;;;;5004999;28;19952;-67
2023/07/22 13:46:03;;;;;;;;;;;24.80;99.90;;;;;;5004979;28;19988;-67
2023/07/22 13:48:30;;;;;;;;;;;24.80;99.90;;;;;;5004847;28;19997;-70
2023/07/22 13:50:58;;;;;;;;;;;24.70;99.90;;;;;;5004692;28;20112;-67
2023/07/22 13:53:25;;;;;;;;;;;24.70;99.90;;;;;;5000655;28;19921;-67
2023/07/22 13:55:52;;;;;;;;;;;25.00;99.90;;;;;;4985967;28;19993;-67
2023/07/22 13:58:19;;;;;;;;;;;25.20;99.90;;;;;;4999125;28;19929;-67
2023/07/22 14:00:46;;;;;;;;;;;25.50;99.90;;;;;;5004095;28;19989;-67
2023/07/22 14:03:12;;;;;;;;;;;25.60;99.80;;;;;;4999532;28;19928;-67
2023/07/22 14:05:39;;;;;;;;;;;25.50;99.90;;;;;;5004684;28;19922;-67
2023/07/22 14:08:05;;;;;;;;;;;25.30;99.60;;;;;;4985265;28;19956;-70
2023/07/22 14:10:32;;;;;;;;;;;25.20;99.80;;;;;;4997409;28;20179;-67
2023/07/22 14:13:00;;;;;;;;;;;25.00;99.90;;;;;;5005017;28;19922;-67
2023/07/22 14:15:27;;;;;;;;;;;24.80;99.90;;;;;;4992604;28;20289;-67
2023/07/22 14:17:53;;;;;;;;;;;24.80;99.90;;;;;;4991612;28;19953;-67
2023/07/22 14:20:20;;;;;;;;;;;25.10;99.50;;;;;;5004788;28;20018;-67
2023/07/22 14:22:49;;;;;;;;;;;25.50;99.30;;;;;;5004738;28;19922;-67